createdAt,value
2022-08-05T00:00:27.430Z,98295.66
2022-08-05T00:02:55.982Z,98292.78
2022-08-05T00:06:01.923Z,98287.16
2022-08-05T00:08:32.615Z,98292.03
2022-08-05T00:11:00.455Z,98287.53
2022-08-05T00:13:39.258Z,98295.94
2022-08-05T00:16:12.842Z,98290.16
2022-08-05T00:18:46.500Z,98285.03
2022-08-05T00:21:18.869Z,98287.63
2022-08-05T00:23:53.715Z,98286.38
2022-08-05T00:26:39.358Z,98289.50
2022-08-05T00:29:18.123Z,98291.38
2022-08-05T00:32:10.206Z,98289.28
2022-08-05T00:34:54.358Z,98291.47
2022-08-05T00:37:20.160Z,98299.06
2022-08-05T00:39:57.985Z,98296.84
2022-08-05T00:42:39.719Z,98300.72
2022-08-05T00:45:13.420Z,98297.56
2022-08-05T00:47:56.747Z,98292.44
2022-08-05T00:50:28.579Z,98296.06
2022-08-05T00:52:58.469Z,98297.66
2022-08-05T00:55:34.203Z,98299.53
2022-08-05T00:58:11.993Z,98306.69
2022-08-05T01:00:40.297Z,98303.66
2022-08-05T01:03:23.012Z,98307.47
2022-08-05T01:05:54.504Z,98311.75
2022-08-05T01:08:40.454Z,98317.81
2022-08-05T01:11:33.446Z,98347.47
2022-08-05T01:14:28.101Z,98348.63
2022-08-05T01:17:21.513Z,98350.72
2022-08-05T01:20:04.296Z,98363.56
2022-08-05T01:22:49.792Z,98353.91
2022-08-05T01:25:53.292Z,98354.16
2022-08-05T01:28:49.830Z,98360.16
2022-08-05T01:31:28.108Z,98366.81
2022-08-05T01:34:20.527Z,98368.09
2022-08-05T01:37:25.112Z,98367.31
2022-08-05T01:39:54.971Z,98372.34
2022-08-05T01:42:27.997Z,98374.22
2022-08-05T01:45:02.251Z,98372.50
2022-08-05T01:47:39.452Z,98380.28
2022-08-05T01:50:15.246Z,98383.56
2022-08-05T01:52:49.652Z,98388.38
2022-08-05T01:55:21.205Z,98394.03
2022-08-05T01:58:09.942Z,98398.38
2022-08-05T02:00:42.504Z,98392.47
2022-08-05T02:03:32.009Z,98397.63
2022-08-05T02:06:37.003Z,98393.94
2022-08-05T02:08:57.792Z,98391.72
2022-08-05T02:11:42.178Z,98393.06
2022-08-05T02:14:29.360Z,98387.47
2022-08-05T02:17:07.976Z,98392.41
2022-08-05T02:19:53.306Z,98386.03
2022-08-05T02:22:33.753Z,98377.69
2022-08-05T02:25:49.419Z,98389.09
2022-08-05T02:29:21.316Z,98388.75
2022-08-05T02:31:51.586Z,98401.03
2022-08-05T02:35:22.116Z,98406.75
2022-08-05T02:38:00.099Z,98405.16
2022-08-05T02:40:27.921Z,98403.44
2022-08-05T02:44:06.583Z,98403.09
2022-08-05T02:47:58.663Z,98402.91
2022-08-05T02:51:19.064Z,98409.03
2022-08-05T02:54:52.236Z,98405.84
2022-08-05T02:58:15.503Z,98410.25
2022-08-05T03:01:45.603Z,98419.31
2022-08-05T03:04:14.596Z,98426.34
2022-08-05T03:08:01.736Z,98410.56
2022-08-05T03:11:55.639Z,98426.34
2022-08-05T03:15:12.607Z,98433.94
2022-08-05T03:17:41.796Z,98433.75
2022-08-05T03:20:10.441Z,98433.84
2022-08-05T03:23:39.998Z,98442.31
2022-08-05T03:26:31.063Z,98435.16
2022-08-05T03:28:55.240Z,98437.59
2022-08-05T03:31:55.739Z,98452.06
2022-08-05T03:34:10.833Z,98451.38
2022-08-05T03:36:37.841Z,98452.59
2022-08-05T03:39:12.843Z,98445.84
2022-08-05T03:41:47.061Z,98454.31
2022-08-05T03:44:19.929Z,98456.66
2022-08-05T03:46:47.610Z,98448.63
2022-08-05T03:49:15.916Z,98454.13
2022-08-05T03:52:36.467Z,98458.66
2022-08-05T03:55:50.896Z,98462.84
2022-08-05T03:57:46.103Z,98449.06
2022-08-05T04:00:16.443Z,98460.09
2022-08-05T04:02:57.915Z,98460.09
2022-08-05T04:05:36.295Z,98440.78
2022-08-05T04:08:14.899Z,98444.44
2022-08-05T04:11:00.410Z,98435.31
2022-08-05T04:13:50.050Z,98442.91
2022-08-05T04:16:25.320Z,98444.94
2022-08-05T04:19:00.087Z,98457.69
2022-08-05T04:22:09.008Z,98474.53
2022-08-05T04:24:19.407Z,98488.66
2022-08-05T04:26:52.780Z,98502.47
2022-08-05T04:29:27.225Z,98483.91
2022-08-05T04:31:56.820Z,98481.75
2022-08-05T04:34:33.728Z,98495.94
2022-08-05T04:37:03.109Z,98505.44
2022-08-05T04:39:32.167Z,98508.22
2022-08-05T04:41:59.681Z,98517.72
2022-08-05T04:44:29.949Z,98527.00
2022-08-05T04:47:08.968Z,98539.75
2022-08-05T04:50:03.051Z,98536.31
2022-08-05T04:52:28.282Z,98542.34
2022-08-05T04:54:57.503Z,98556.31
2022-08-05T04:57:29.034Z,98550.63
2022-08-05T04:59:58.362Z,98562.16
2022-08-05T05:02:37.281Z,98573.19
2022-08-05T05:05:26.270Z,98583.53
2022-08-05T05:08:30.315Z,98584.91
2022-08-05T05:10:57.632Z,98590.94
2022-08-05T05:13:24.745Z,98602.81
2022-08-05T05:16:01.995Z,98634.22
2022-08-05T05:18:33.839Z,98651.28
2022-08-05T05:21:03.461Z,98651.16
2022-08-05T05:23:39.398Z,98649.75
2022-08-05T05:26:18.250Z,98647.34
2022-08-05T05:28:49.885Z,98632.50
2022-08-05T05:31:18.547Z,98642.16
2022-08-05T05:34:01.912Z,98649.53
2022-08-05T05:36:31.038Z,98661.44
2022-08-05T05:38:58.771Z,98664.56
2022-08-05T05:41:26.037Z,98668.31
2022-08-05T05:44:35.911Z,98676.06
2022-08-05T05:46:55.299Z,98684.13
2022-08-05T05:49:25.433Z,98691.16
2022-08-05T05:51:55.919Z,98693.94
2022-08-05T05:54:22.985Z,98711.72
2022-08-05T05:57:13.848Z,98710.53
2022-08-05T05:59:50.447Z,98713.44
2022-08-05T06:02:32.588Z,98707.81
2022-08-05T06:05:10.366Z,98710.25
2022-08-05T06:08:01.104Z,98710.63
2022-08-05T06:10:29.441Z,98707.91
2022-08-05T06:13:01.634Z,98708.97
2022-08-05T06:16:27.438Z,98714.53
2022-08-05T06:18:41.494Z,98713.16
2022-08-05T06:21:16.811Z,98708.22
2022-08-05T06:23:46.086Z,98696.75
2022-08-05T06:26:21.508Z,98697.31
2022-08-05T06:28:51.540Z,98701.38
2022-08-05T06:31:21.888Z,98698.28
2022-08-05T06:34:07.716Z,98706.16
2022-08-05T06:36:53.466Z,98697.78
2022-08-05T06:39:26.905Z,98699.09
2022-08-05T06:41:58.637Z,98700.09
2022-08-05T06:44:26.259Z,98710.31
2022-08-05T06:46:54.357Z,98697.84
2022-08-05T06:50:01.917Z,98688.50
2022-08-05T06:52:37.022Z,98694.25
2022-08-05T06:54:56.533Z,98691.78
2022-08-05T06:58:03.331Z,98696.41
2022-08-05T07:00:14.242Z,98701.53
2022-08-05T07:02:53.454Z,98702.50
2022-08-05T07:05:36.878Z,98698.00
2022-08-05T07:08:05.283Z,98701.72
2022-08-05T07:10:32.911Z,98701.03
2022-08-05T07:13:59.207Z,98700.44
2022-08-05T07:17:56.040Z,98703.75
2022-08-05T07:19:12.069Z,98713.13
2022-08-05T07:22:00.306Z,98721.63
2022-08-05T07:24:28.732Z,98725.38
2022-08-05T07:26:57.236Z,98729.69
2022-08-05T07:30:24.083Z,98729.25
2022-08-05T07:32:14.653Z,98728.09
2022-08-05T07:34:42.486Z,98729.06
2022-08-05T07:37:11.683Z,98737.81
2022-08-05T07:40:04.391Z,98732.97
2022-08-05T07:42:33.724Z,98730.75
2022-08-05T07:45:01.301Z,98742.41
2022-08-05T07:47:42.330Z,98737.22
2022-08-05T07:50:11.929Z,98743.34
2022-08-05T07:52:44.309Z,98745.91
2022-08-05T07:55:44.014Z,98756.69
2022-08-05T07:58:03.124Z,98753.47
2022-08-05T08:00:31.598Z,98755.28
2022-08-05T08:02:58.843Z,98762.03
2022-08-05T08:05:49.697Z,98757.22
2022-08-05T08:08:20.043Z,98752.28
2022-08-05T08:10:48.761Z,98749.09
2022-08-05T08:13:22.111Z,98747.09
2022-08-05T08:16:35.401Z,98756.66
2022-08-05T08:18:43.356Z,98755.28
2022-08-05T08:21:17.711Z,98750.69
2022-08-05T08:24:01.571Z,98754.50
2022-08-05T08:26:32.521Z,98748.94
2022-08-05T08:29:21.579Z,98749.25
2022-08-05T08:31:49.634Z,98743.72
2022-08-05T08:34:30.911Z,98750.84
2022-08-05T08:37:04.981Z,98750.72
2022-08-05T08:39:37.834Z,98753.28
2022-08-05T08:42:10.827Z,98753.28
2022-08-05T08:45:18.391Z,98751.81
2022-08-05T08:48:07.157Z,98757.44
2022-08-05T08:51:03.917Z,98742.75
2022-08-05T08:53:25.099Z,98723.56
2022-08-05T08:56:02.667Z,98720.75
2022-08-05T08:58:43.927Z,98724.63
2022-08-05T09:01:19.681Z,98724.25
2022-08-05T09:03:55.459Z,98715.88
2022-08-05T09:06:30.406Z,98710.09
2022-08-05T09:09:00.631Z,98721.41
2022-08-05T09:11:50.853Z,98721.16
2022-08-05T09:14:58.318Z,98714.78
2022-08-05T09:17:40.174Z,98712.63
2022-08-05T09:20:02.351Z,98704.41
2022-08-05T09:23:19.803Z,98703.13
2022-08-05T09:26:00.307Z,98698.25
2022-08-05T09:28:34.288Z,98686.41
2022-08-05T09:31:18.220Z,98684.25
2022-08-05T09:34:07.285Z,98679.91
2022-08-05T09:36:55.910Z,98681.66
2022-08-05T09:39:41.450Z,98674.00
2022-08-05T09:42:23.670Z,98670.19
2022-08-05T09:46:07.706Z,98673.59
2022-08-05T09:49:06.439Z,98665.44
2022-08-05T09:51:38.531Z,98659.78
2022-08-05T09:54:11.335Z,98666.41
2022-08-05T09:56:39.377Z,98662.69
2022-08-05T09:59:17.238Z,98653.91
2022-08-05T10:01:48.059Z,98655.34
2022-08-05T10:04:38.532Z,98668.44
2022-08-05T10:07:19.913Z,98662.84
2022-08-05T10:10:14.139Z,98667.50
2022-08-05T10:12:51.695Z,98659.66
2022-08-05T10:15:34.363Z,98653.22
2022-08-05T10:18:17.459Z,98656.13
2022-08-05T10:20:48.426Z,98662.44
2022-08-05T10:23:34.168Z,98661.50
2022-08-05T10:26:14.488Z,98661.03
2022-08-05T10:28:48.102Z,98664.91
2022-08-05T10:32:52.469Z,98659.72
2022-08-05T10:34:11.397Z,98652.38
2022-08-05T10:36:41.982Z,98649.75
2022-08-05T10:39:24.958Z,98650.34
2022-08-05T10:42:14.474Z,98650.19
2022-08-05T10:44:46.512Z,98654.13
2022-08-05T10:47:26.958Z,98650.88
2022-08-05T10:50:31.961Z,98647.97
2022-08-05T10:52:59.858Z,98651.53
2022-08-05T10:55:30.520Z,98648.00
2022-08-05T10:58:08.964Z,98635.38
2022-08-05T11:00:46.253Z,98646.72
2022-08-05T11:03:25.859Z,98644.28
2022-08-05T11:06:15.732Z,98646.56
2022-08-05T11:09:31.960Z,98649.13
2022-08-05T11:12:45.210Z,98656.00
2022-08-05T11:16:00.068Z,98646.13
2022-08-05T11:18:32.483Z,98655.66
2022-08-05T11:21:11.637Z,98654.72
2022-08-05T11:24:03.847Z,98648.16
2022-08-05T11:26:43.129Z,98649.94
2022-08-05T11:29:40.768Z,98660.31
2022-08-05T11:32:27.259Z,98653.44
2022-08-05T11:34:57.263Z,98655.53
2022-08-05T11:38:30.912Z,98650.13
2022-08-05T11:41:34.835Z,98651.06
2022-08-05T11:44:53.811Z,98654.47
2022-08-05T11:48:18.246Z,98657.81
2022-08-05T11:50:51.221Z,98651.28
2022-08-05T11:54:14.740Z,98649.06
2022-08-05T11:56:52.779Z,98648.59
2022-08-05T12:00:16.585Z,98647.03
2022-08-05T12:03:40.770Z,98650.94
2022-08-05T12:07:05.578Z,98644.97
2022-08-05T12:10:42.951Z,98646.84
2022-08-05T12:13:17.336Z,98642.19
2022-08-05T12:16:47.416Z,98638.25
2022-08-05T12:20:25.654Z,98635.03
2022-08-05T12:23:03.379Z,98632.88
2022-08-05T12:26:28.443Z,98634.44
2022-08-05T12:28:55.832Z,98636.25
2022-08-05T12:31:33.515Z,98634.13
2022-08-05T12:35:07.179Z,98619.75
2022-08-05T12:37:35.617Z,98637.25
2022-08-05T12:41:01.485Z,98622.47
2022-08-05T12:43:31.956Z,98618.09
2022-08-05T12:45:59.582Z,98616.88
2022-08-05T12:48:32.935Z,98622.91
2022-08-05T12:51:21.685Z,98618.28
2022-08-05T12:54:04.713Z,98623.34
2022-08-05T12:56:51.025Z,98623.16
2022-08-05T12:59:27.486Z,98606.22
2022-08-05T13:02:12.127Z,98611.66
2022-08-05T13:04:54.304Z,98608.16
2022-08-05T13:07:56.020Z,98604.88
2022-08-05T13:10:19.856Z,98605.63
2022-08-05T13:12:57.163Z,98605.59
2022-08-05T13:15:41.129Z,98588.06
2022-08-05T13:18:19.467Z,98589.75
2022-08-05T13:20:49.911Z,98595.03
2022-08-05T13:23:22.462Z,98601.22
2022-08-05T13:25:59.729Z,98593.88
2022-08-05T13:28:32.355Z,98581.41
2022-08-05T13:31:00.222Z,98590.63
2022-08-05T13:34:23.963Z,98581.84
2022-08-05T13:36:25.881Z,98576.66
2022-08-05T13:38:56.718Z,98583.34
2022-08-05T13:41:25.817Z,98581.63
2022-08-05T13:44:05.010Z,98573.03
2022-08-05T13:46:51.035Z,98565.22
2022-08-05T13:49:20.540Z,98555.81
2022-08-05T13:51:48.476Z,98550.91
2022-08-05T13:54:21.130Z,98563.06
2022-08-05T13:57:51.852Z,98548.94
2022-08-05T14:01:15.795Z,98551.97
2022-08-05T14:05:00.552Z,98548.59
2022-08-05T14:08:28.011Z,98537.31
2022-08-05T14:11:19.913Z,98539.16
2022-08-05T14:13:54.807Z,98538.03
2022-08-05T14:17:01.831Z,98530.78
2022-08-05T14:19:28.889Z,98520.50
2022-08-05T14:22:09.063Z,98520.66
2022-08-05T14:25:45.197Z,98516.38
2022-08-05T14:29:16.567Z,98518.59
2022-08-05T14:32:40.589Z,98516.16
2022-08-05T14:35:10.766Z,98525.31
2022-08-05T14:38:35.770Z,98529.06
2022-08-05T14:42:19.141Z,98531.06
2022-08-05T14:44:47.240Z,98522.75
2022-08-05T14:47:14.340Z,98533.69
2022-08-05T14:49:58.899Z,98529.13
2022-08-05T14:52:51.872Z,98518.63
2022-08-05T14:55:15.540Z,98521.19
2022-08-05T14:58:39.101Z,98523.94
2022-08-05T15:01:18.178Z,98526.47
2022-08-05T15:03:50.156Z,98526.47
2022-08-05T15:06:20.362Z,98526.63
2022-08-05T15:08:59.868Z,98527.66
2022-08-05T15:11:53.164Z,98548.66
2022-08-05T15:14:35.584Z,98560.75
2022-08-05T15:17:46.194Z,98561.97
2022-08-05T15:20:01.825Z,98579.13
2022-08-05T15:22:29.172Z,98570.34
2022-08-05T15:24:59.104Z,98558.31
2022-08-05T15:27:26.609Z,98555.50
2022-08-05T15:30:05.171Z,98552.91
2022-08-05T15:32:32.979Z,98564.16
2022-08-05T15:35:00.081Z,98574.44
2022-08-05T15:38:09.242Z,98585.16
2022-08-05T15:41:03.180Z,98588.56
2022-08-05T15:43:20.244Z,98605.03
2022-08-05T15:46:00.039Z,98620.19
2022-08-05T15:48:29.785Z,98614.03
2022-08-05T15:50:58.234Z,98613.16
2022-08-05T15:53:38.250Z,98615.13
2022-08-05T15:56:18.455Z,98610.84
2022-08-05T15:58:46.606Z,98593.91
2022-08-05T16:01:16.682Z,98599.88
2022-08-05T16:03:50.569Z,98594.88
2022-08-05T16:06:19.864Z,98587.69
2022-08-05T16:08:50.926Z,98597.94
2022-08-05T16:11:20.856Z,98600.41
2022-08-05T16:14:06.230Z,98594.06
2022-08-05T16:16:35.172Z,98595.59
2022-08-05T16:19:02.479Z,98603.03
2022-08-05T16:22:00.638Z,98610.38
2022-08-05T16:24:41.117Z,98610.44
2022-08-05T16:27:05.231Z,98607.63
2022-08-05T16:29:37.275Z,98615.81
2022-08-05T16:32:06.657Z,98617.88
2022-08-05T16:34:39.254Z,98637.34
2022-08-05T16:38:16.199Z,98625.53
2022-08-05T16:40:05.702Z,98631.88
2022-08-05T16:42:35.243Z,98642.03
2022-08-05T16:46:02.900Z,98636.16
2022-08-05T16:47:55.499Z,98638.25
2022-08-05T16:50:25.601Z,98644.53
2022-08-05T16:52:52.814Z,98646.88
2022-08-05T16:55:24.537Z,98648.81
2022-08-05T16:58:00.031Z,98649.19
2022-08-05T17:00:34.491Z,98643.34
2022-08-05T17:03:15.352Z,98640.19
2022-08-05T17:05:53.836Z,98645.50
2022-08-05T17:08:36.423Z,98658.81
2022-08-05T17:11:16.554Z,98665.69
2022-08-05T17:13:46.469Z,98660.72
2022-08-05T17:16:33.626Z,98661.09
2022-08-05T17:19:01.490Z,98651.03
2022-08-05T17:21:36.122Z,98662.63
2022-08-05T17:24:18.685Z,98654.09
2022-08-05T17:26:58.303Z,98664.59
2022-08-05T17:29:33.698Z,98672.53
2022-08-05T17:32:11.829Z,98681.25
2022-08-05T17:34:49.121Z,98685.56
2022-08-05T17:37:40.897Z,98678.63
2022-08-05T17:40:13.168Z,98675.38
2022-08-05T17:42:51.052Z,98682.81
2022-08-05T17:45:22.467Z,98700.56
2022-08-05T17:47:55.073Z,98698.84
2022-08-05T17:50:30.466Z,98688.50
2022-08-05T17:53:04.755Z,98699.81
2022-08-05T17:55:37.931Z,98701.38
2022-08-05T17:58:13.428Z,98712.47
2022-08-05T18:00:47.126Z,98720.56
2022-08-05T18:03:48.449Z,98717.97
2022-08-05T18:06:11.059Z,98718.03
2022-08-05T18:08:44.471Z,98727.84
2022-08-05T18:11:23.701Z,98723.22
2022-08-05T18:13:54.329Z,98741.88
2022-08-05T18:16:22.758Z,98745.44
2022-08-05T18:18:50.758Z,98745.66
2022-08-05T18:21:19.944Z,98749.19
2022-08-05T18:23:53.872Z,98755.06
2022-08-05T18:26:27.634Z,98755.19
2022-08-05T18:28:57.761Z,98760.94
2022-08-05T18:31:25.486Z,98773.34
2022-08-05T18:34:00.231Z,98780.53
2022-08-05T18:36:28.329Z,98788.75
2022-08-05T18:38:56.094Z,98795.25
2022-08-05T18:41:56.360Z,98806.47
2022-08-05T18:44:11.729Z,98813.06
2022-08-05T18:46:41.196Z,98813.34
2022-08-05T18:49:30.312Z,98814.97
2022-08-05T18:52:16.491Z,98822.44
2022-08-05T18:54:45.922Z,98832.78
2022-08-05T18:57:14.998Z,98831.91
2022-08-05T19:00:01.640Z,98849.63
2022-08-05T19:02:33.410Z,98851.81
2022-08-05T19:06:06.103Z,98842.84
2022-08-05T19:07:52.491Z,98848.50
2022-08-05T19:10:27.892Z,98852.03
2022-08-05T19:12:57.266Z,98849.09
2022-08-05T19:15:58.876Z,98854.13
2022-08-05T19:18:22.278Z,98856.94
2022-08-05T19:20:54.177Z,98877.28
2022-08-05T19:24:05.217Z,98864.91
2022-08-05T19:26:11.362Z,98868.19
2022-08-05T19:28:47.004Z,98883.53
2022-08-05T19:31:19.548Z,98891.22
2022-08-05T19:33:56.343Z,98893.69
2022-08-05T19:36:29.225Z,98883.50
2022-08-05T19:39:00.565Z,98896.47
2022-08-05T19:41:58.556Z,98894.81
2022-08-05T19:44:15.491Z,98903.38
2022-08-05T19:46:43.635Z,98908.72
2022-08-05T19:49:16.502Z,98917.56
2022-08-05T19:52:09.306Z,98916.47
2022-08-05T19:54:31.892Z,98925.19
2022-08-05T19:57:02.385Z,98918.91
2022-08-05T19:59:54.000Z,98917.19
2022-08-05T20:02:21.909Z,98916.28
2022-08-05T20:04:50.456Z,98928.38
2022-08-05T20:07:47.157Z,98930.81
2022-08-05T20:10:13.648Z,98929.59
2022-08-05T20:12:46.246Z,98942.56
2022-08-05T20:15:48.640Z,98939.78
2022-08-05T20:18:11.005Z,98938.06
2022-08-05T20:20:56.746Z,98944.66
2022-08-05T20:23:40.147Z,98951.75
2022-08-05T20:26:16.224Z,98955.84
2022-08-05T20:28:50.810Z,98946.00
2022-08-05T20:31:21.764Z,98962.41
2022-08-05T20:33:51.800Z,98960.63
2022-08-05T20:36:21.362Z,98970.75
2022-08-05T20:38:54.038Z,98984.13
2022-08-05T20:41:44.334Z,98980.31
2022-08-05T20:44:18.433Z,98976.09
2022-08-05T20:46:58.541Z,98981.94
2022-08-05T20:49:26.407Z,98978.78
2022-08-05T20:51:55.416Z,98989.47
2022-08-05T20:54:26.969Z,98995.91
2022-08-05T20:57:24.562Z,99018.91
2022-08-05T21:00:19.665Z,99022.47
2022-08-05T21:03:01.308Z,99033.97
2022-08-05T21:05:48.431Z,99038.91
2022-08-05T21:08:16.813Z,99036.63
2022-08-05T21:10:48.903Z,99034.13
2022-08-05T21:13:36.789Z,99044.00
2022-08-05T21:16:05.851Z,99058.03
2022-08-05T21:18:33.721Z,99071.28
2022-08-05T21:21:01.454Z,99075.78
2022-08-05T21:23:37.023Z,99093.41
2022-08-05T21:26:12.204Z,99102.06
2022-08-05T21:28:41.015Z,99107.69
2022-08-05T21:31:16.096Z,99106.22
2022-08-05T21:33:47.795Z,99104.31
2022-08-05T21:36:27.450Z,99104.34
2022-08-05T21:38:58.589Z,99103.56
2022-08-05T21:41:34.047Z,99103.34
2022-08-05T21:44:04.927Z,99107.38
2022-08-05T21:46:34.219Z,99098.63
2022-08-05T21:49:04.718Z,99091.53
2022-08-05T21:52:21.972Z,99080.09
2022-08-05T21:54:28.101Z,99082.44
2022-08-05T21:57:29.181Z,99098.34
2022-08-05T22:00:03.216Z,99106.03
2022-08-05T22:03:51.812Z,99122.63
2022-08-05T22:06:35.466Z,99119.94
2022-08-05T22:10:03.113Z,99120.16
2022-08-05T22:19:01.164Z,99136.06
2022-08-05T22:21:36.476Z,99140.94
2022-08-05T22:24:40.764Z,99138.09
2022-08-05T22:28:10.437Z,99142.97
2022-08-05T22:30:32.199Z,99161.00
2022-08-05T22:33:18.916Z,99163.97
2022-08-05T22:36:06.646Z,99169.91
2022-08-05T22:38:34.278Z,99171.44
2022-08-05T22:41:09.631Z,99171.19
2022-08-05T22:43:41.588Z,99185.78
2022-08-05T22:46:13.066Z,99190.81
2022-08-05T22:48:43.267Z,99195.56
2022-08-05T22:51:22.357Z,99195.47
2022-08-05T22:53:51.207Z,99187.44
2022-08-05T22:56:30.420Z,99197.91
2022-08-05T22:58:59.832Z,99195.28
2022-08-05T23:02:04.480Z,99200.88
2022-08-05T23:04:17.923Z,99206.25
2022-08-05T23:06:45.535Z,99213.09
2022-08-05T23:09:27.741Z,99211.19
2022-08-05T23:12:03.902Z,99215.44
2022-08-05T23:14:32.160Z,99206.47
2022-08-05T23:17:24.504Z,99216.00
2022-08-05T23:20:02.469Z,99222.91
2022-08-05T23:22:30.873Z,99217.41
2022-08-05T23:24:58.928Z,99222.34
2022-08-05T23:27:28.774Z,99225.50
2022-08-05T23:30:00.898Z,99227.66
2022-08-05T23:32:28.836Z,99225.72
2022-08-05T23:34:57.091Z,99225.19
2022-08-05T23:37:26.631Z,99225.34
2022-08-05T23:40:39.588Z,99235.31
2022-08-05T23:44:05.207Z,99238.38
2022-08-05T23:46:33.610Z,99229.47
2022-08-05T23:49:15.828Z,99236.56
2022-08-05T23:52:30.735Z,99238.13
2022-08-05T23:55:01.869Z,99228.81
2022-08-05T23:58:31.694Z,99239.28
